sensor_id;sensor_type;location;lat;lon;timestamp;temperature;humidity
22145;DHT22;11238;48.730;11.566;2023-07-13T00:02:03;18.70;99.90
22145;DHT22;11238;48.730;11.566;2023-07-13T00:04:29;18.70;99.90
22145;DHT22;11238;48.730;11.566;2023-07-13T00:06:54;18.70;99.90
22145;DHT22;11238;48.730;11.566;2023-07-13T00:09:21;18.80;99.90
22145;DHT22;11238;48.730;11.566;2023-07-13T00:11:51;18.80;99.90
22145;DHT22;11238;48.730;11.566;2023-07-13T00:14:21;18.70;99.90
22145;DHT22;11238;48.730;11.566;2023-07-13T00:16:47;18.60;99.90
22145;DHT22;11238;48.730;11.566;2023-07-13T00:19:13;18.60;99.90
22145;DHT22;11238;48.730;11.566;2023-07-13T00:21:40;18.70;99.90
22145;DHT22;11238;48.730;11.566;2023-07-13T00:24:07;18.60;99.90
22145;DHT22;11238;48.730;11.566;2023-07-13T00:26:34;18.60;99.90
22145;DHT22;11238;48.730;11.566;2023-07-13T00:29:00;18.70;99.90
22145;DHT22;11238;48.730;11.566;2023-07-13T00:31:26;18.70;99.90
22145;DHT22;11238;48.730;11.566;2023-07-13T00:33:51;18.80;99.90
22145;DHT22;11238;48.730;11.566;2023-07-13T00:36:17;18.70;99.90
22145;DHT22;11238;48.730;11.566;2023-07-13T00:38:43;18.70;99.90
22145;DHT22;11238;48.730;11.566;2023-07-13T00:41:09;18.80;99.90
22145;DHT22;11238;48.730;11.566;2023-07-13T00:43:36;18.70;99.90
22145;DHT22;11238;48.730;11.566;2023-07-13T00:46:12;18.80;99.90
22145;DHT22;11238;48.730;11.566;2023-07-13T00:48:39;18.80;99.90
22145;DHT22;11238;48.730;11.566;2023-07-13T00:51:06;18.70;99.90
22145;DHT22;11238;48.730;11.566;2023-07-13T00:53:32;18.80;99.90
22145;DHT22;11238;48.730;11.566;2023-07-13T00:55:58;18.70;99.90
22145;DHT22;11238;48.730;11.566;2023-07-13T00:58:26;18.70;99.90
22145;DHT22;11238;48.730;11.566;2023-07-13T01:00:53;18.70;99.90
22145;DHT22;11238;48.730;11.566;2023-07-13T01:03:20;18.70;99.90
22145;DHT22;11238;48.730;11.566;2023-07-13T01:05:48;18.70;99.90
22145;DHT22;11238;48.730;11.566;2023-07-13T01:08:14;18.70;99.90
22145;DHT22;11238;48.730;11.566;2023-07-13T01:10:40;18.70;99.90
22145;DHT22;11238;48.730;11.566;2023-07-13T01:13:08;18.60;99.90
22145;DHT22;11238;48.730;11.566;2023-07-13T01:15:41;18.60;99.90
22145;DHT22;11238;48.730;11.566;2023-07-13T01:18:15;18.60;99.90
22145;DHT22;11238;48.730;11.566;2023-07-13T01:20:55;18.60;99.90
22145;DHT22;11238;48.730;11.566;2023-07-13T01:23:22;18.60;99.90
22145;DHT22;11238;48.730;11.566;2023-07-13T01:25:48;18.60;99.90
22145;DHT22;11238;48.730;11.566;2023-07-13T01:28:14;18.50;99.90
22145;DHT22;11238;48.730;11.566;2023-07-13T01:30:43;18.50;99.90
22145;DHT22;11238;48.730;11.566;2023-07-13T01:33:11;18.40;99.90
22145;DHT22;11238;48.730;11.566;2023-07-13T01:35:37;18.40;99.90
22145;DHT22;11238;48.730;11.566;2023-07-13T01:38:05;18.40;99.90
22145;DHT22;11238;48.730;11.566;2023-07-13T01:40:31;18.40;99.90
22145;DHT22;11238;48.730;11.566;2023-07-13T01:42:58;18.50;99.90
22145;DHT22;11238;48.730;11.566;2023-07-13T01:45:23;18.50;99.90
22145;DHT22;11238;48.730;11.566;2023-07-13T01:47:50;18.50;99.90
22145;DHT22;11238;48.730;11.566;2023-07-13T01:50:15;18.50;99.90
22145;DHT22;11238;48.730;11.566;2023-07-13T01:52:42;18.50;99.90
22145;DHT22;11238;48.730;11.566;2023-07-13T01:55:08;18.40;99.90
22145;DHT22;11238;48.730;11.566;2023-07-13T01:57:34;18.50;99.90
22145;DHT22;11238;48.730;11.566;2023-07-13T02:00:03;18.40;99.90
22145;DHT22;11238;48.730;11.566;2023-07-13T02:02:41;18.40;99.90
22145;DHT22;11238;48.730;11.566;2023-07-13T02:05:09;18.50;99.90
22145;DHT22;11238;48.730;11.566;2023-07-13T02:07:35;18.50;99.90
22145;DHT22;11238;48.730;11.566;2023-07-13T02:10:03;18.50;99.90
22145;DHT22;11238;48.730;11.566;2023-07-13T02:12:29;18.50;99.90
22145;DHT22;11238;48.730;11.566;2023-07-13T02:14:55;18.40;99.90
22145;DHT22;11238;48.730;11.566;2023-07-13T02:17:21;18.40;99.90
22145;DHT22;11238;48.730;11.566;2023-07-13T02:19:47;18.30;99.90
22145;DHT22;11238;48.730;11.566;2023-07-13T02:22:13;18.30;99.90
22145;DHT22;11238;48.730;11.566;2023-07-13T02:24:39;18.30;99.90
22145;DHT22;11238;48.730;11.566;2023-07-13T02:27:05;18.30;99.90
22145;DHT22;11238;48.730;11.566;2023-07-13T02:29:31;18.40;99.90
22145;DHT22;11238;48.730;11.566;2023-07-13T02:31:57;18.40;99.90
22145;DHT22;11238;48.730;11.566;2023-07-13T02:34:23;18.30;99.90
22145;DHT22;11238;48.730;11.566;2023-07-13T02:36:49;18.30;99.90
22145;DHT22;11238;48.730;11.566;2023-07-13T02:39:14;18.30;99.90
22145;DHT22;11238;48.730;11.566;2023-07-13T02:41:41;18.30;99.90
22145;DHT22;11238;48.730;11.566;2023-07-13T02:44:07;18.20;99.90
22145;DHT22;11238;48.730;11.566;2023-07-13T02:46:36;18.20;99.90
22145;DHT22;11238;48.730;11.566;2023-07-13T02:49:03;18.20;99.90
22145;DHT22;11238;48.730;11.566;2023-07-13T02:51:29;18.20;99.90
22145;DHT22;11238;48.730;11.566;2023-07-13T02:53:56;18.10;99.90
22145;DHT22;11238;48.730;11.566;2023-07-13T02:56:24;18.10;99.90
22145;DHT22;11238;48.730;11.566;2023-07-13T02:58:50;18.10;99.90
22145;DHT22;11238;48.730;11.566;2023-07-13T03:01:16;18.20;99.90
22145;DHT22;11238;48.730;11.566;2023-07-13T03:03:45;18.10;99.90
22145;DHT22;11238;48.730;11.566;2023-07-13T03:06:13;18.10;99.90
22145;DHT22;11238;48.730;11.566;2023-07-13T03:08:47;18.10;99.90
22145;DHT22;11238;48.730;11.566;2023-07-13T03:11:19;18.10;99.90
22145;DHT22;11238;48.730;11.566;2023-07-13T03:13:48;18.10;99.90
22145;DHT22;11238;48.730;11.566;2023-07-13T03:16:15;18.10;99.90
22145;DHT22;11238;48.730;11.566;2023-07-13T03:18:43;18.10;99.90
22145;DHT22;11238;48.730;11.566;2023-07-13T03:21:11;18.20;99.90
22145;DHT22;11238;48.730;11.566;2023-07-13T03:23:38;18.20;99.90
22145;DHT22;11238;48.730;11.566;2023-07-13T03:26:16;18.10;99.90
22145;DHT22;11238;48.730;11.566;2023-07-13T03:28:44;18.10;99.90
22145;DHT22;11238;48.730;11.566;2023-07-13T03:31:17;18.10;99.90
22145;DHT22;11238;48.730;11.566;2023-07-13T03:33:44;18.10;99.90
22145;DHT22;11238;48.730;11.566;2023-07-13T03:36:17;18.10;99.90
22145;DHT22;11238;48.730;11.566;2023-07-13T03:38:48;18.10;99.90
22145;DHT22;11238;48.730;11.566;2023-07-13T03:41:17;18.20;99.90
22145;DHT22;11238;48.730;11.566;2023-07-13T03:43:43;18.20;99.90
22145;DHT22;11238;48.730;11.566;2023-07-13T03:46:11;18.20;99.90
22145;DHT22;11238;48.730;11.566;2023-07-13T03:48:37;18.20;99.90
22145;DHT22;11238;48.730;11.566;2023-07-13T03:51:03;18.20;99.90
22145;DHT22;11238;48.730;11.566;2023-07-13T03:53:29;18.20;99.90
22145;DHT22;11238;48.730;11.566;2023-07-13T03:55:55;18.20;99.90
22145;DHT22;11238;48.730;11.566;2023-07-13T03:58:32;18.20;99.90
22145;DHT22;11238;48.730;11.566;2023-07-13T04:01:07;18.30;99.90
22145;DHT22;11238;48.730;11.566;2023-07-13T04:03:33;18.20;99.90
22145;DHT22;11238;48.730;11.566;2023-07-13T04:06:01;18.20;99.90
22145;DHT22;11238;48.730;11.566;2023-07-13T04:08:35;18.20;99.90
22145;DHT22;11238;48.730;11.566;2023-07-13T04:11:04;18.30;99.90
22145;DHT22;11238;48.730;11.566;2023-07-13T04:13:30;18.30;99.90
22145;DHT22;11238;48.730;11.566;2023-07-13T04:15:56;18.30;99.90
22145;DHT22;11238;48.730;11.566;2023-07-13T04:18:22;18.20;99.90
22145;DHT22;11238;48.730;11.566;2023-07-13T04:20:49;18.30;99.90
22145;DHT22;11238;48.730;11.566;2023-07-13T04:23:16;18.30;99.90
22145;DHT22;11238;48.730;11.566;2023-07-13T04:25:46;18.30;99.90
22145;DHT22;11238;48.730;11.566;2023-07-13T04:28:16;18.30;99.90
22145;DHT22;11238;48.730;11.566;2023-07-13T04:30:43;18.20;99.90
22145;DHT22;11238;48.730;11.566;2023-07-13T04:33:09;18.30;99.90
22145;DHT22;11238;48.730;11.566;2023-07-13T04:35:35;18.30;99.90
22145;DHT22;11238;48.730;11.566;2023-07-13T04:38:01;18.20;99.90
22145;DHT22;11238;48.730;11.566;2023-07-13T04:40:28;18.30;99.90
22145;DHT22;11238;48.730;11.566;2023-07-13T04:42:55;18.30;99.90
22145;DHT22;11238;48.730;11.566;2023-07-13T04:45:22;18.30;99.90
22145;DHT22;11238;48.730;11.566;2023-07-13T04:47:50;18.30;99.90
22145;DHT22;11238;48.730;11.566;2023-07-13T04:50:16;18.30;99.90
22145;DHT22;11238;48.730;11.566;2023-07-13T04:52:46;18.30;99.90
22145;DHT22;11238;48.730;11.566;2023-07-13T04:55:12;18.40;99.90
22145;DHT22;11238;48.730;11.566;2023-07-13T04:57:38;18.50;99.90
22145;DHT22;11238;48.730;11.566;2023-07-13T05:00:05;18.40;99.90
22145;DHT22;11238;48.730;11.566;2023-07-13T05:02:31;18.40;99.90
22145;DHT22;11238;48.730;11.566;2023-07-13T05:04:58;18.50;99.90
22145;DHT22;11238;48.730;11.566;2023-07-13T05:07:24;18.50;99.90
22145;DHT22;11238;48.730;11.566;2023-07-13T05:09:50;18.40;99.90
22145;DHT22;11238;48.730;11.566;2023-07-13T05:12:16;18.40;99.90
22145;DHT22;11238;48.730;11.566;2023-07-13T05:14:43;18.50;99.90
22145;DHT22;11238;48.730;11.566;2023-07-13T05:17:10;18.60;99.90
22145;DHT22;11238;48.730;11.566;2023-07-13T05:19:36;18.70;99.90
22145;DHT22;11238;48.730;11.566;2023-07-13T05:22:01;18.70;99.90
22145;DHT22;11238;48.730;11.566;2023-07-13T05:24:30;18.70;99.90
22145;DHT22;11238;48.730;11.566;2023-07-13T05:26:56;18.70;99.90
22145;DHT22;11238;48.730;11.566;2023-07-13T05:29:39;18.70;99.90
22145;DHT22;11238;48.730;11.566;2023-07-13T05:32:06;18.70;99.90
22145;DHT22;11238;48.730;11.566;2023-07-13T05:34:32;18.70;99.90
22145;DHT22;11238;48.730;11.566;2023-07-13T05:36:58;18.70;99.90
22145;DHT22;11238;48.730;11.566;2023-07-13T05:39:24;18.80;99.90
22145;DHT22;11238;48.730;11.566;2023-07-13T05:41:51;18.80;99.90
22145;DHT22;11238;48.730;11.566;2023-07-13T05:44:17;18.70;99.90
22145;DHT22;11238;48.730;11.566;2023-07-13T05:46:44;18.70;99.90
22145;DHT22;11238;48.730;11.566;2023-07-13T05:49:10;18.60;99.90
22145;DHT22;11238;48.730;11.566;2023-07-13T05:51:37;18.50;99.90
22145;DHT22;11238;48.730;11.566;2023-07-13T05:54:03;18.50;99.90
22145;DHT22;11238;48.730;11.566;2023-07-13T05:56:29;18.50;99.90
22145;DHT22;11238;48.730;11.566;2023-07-13T05:58:55;18.50;99.90
22145;DHT22;11238;48.730;11.566;2023-07-13T06:01:21;18.70;99.90
22145;DHT22;11238;48.730;11.566;2023-07-13T06:03:48;18.40;99.90
22145;DHT22;11238;48.730;11.566;2023-07-13T06:06:15;18.50;99.90
22145;DHT22;11238;48.730;11.566;2023-07-13T06:08:41;18.40;99.90
22145;DHT22;11238;48.730;11.566;2023-07-13T06:13:36;18.50;99.90
22145;DHT22;11238;48.730;11.566;2023-07-13T06:16:03;18.40;99.90
22145;DHT22;11238;48.730;11.566;2023-07-13T06:18:36;18.60;99.90
22145;DHT22;11238;48.730;11.566;2023-07-13T06:21:10;18.80;99.90
22145;DHT22;11238;48.730;11.566;2023-07-13T06:23:36;19.10;99.90
22145;DHT22;11238;48.730;11.566;2023-07-13T06:26:03;19.10;99.90
22145;DHT22;11238;48.730;11.566;2023-07-13T06:28:31;19.10;99.90
22145;DHT22;11238;48.730;11.566;2023-07-13T06:30:58;19.10;99.90
22145;DHT22;11238;48.730;11.566;2023-07-13T06:33:27;19.10;99.90
22145;DHT22;11238;48.730;11.566;2023-07-13T06:35:54;18.90;99.90
22145;DHT22;11238;48.730;11.566;2023-07-13T06:38:21;18.90;99.90
22145;DHT22;11238;48.730;11.566;2023-07-13T06:40:46;19.00;99.90
22145;DHT22;11238;48.730;11.566;2023-07-13T06:43:15;19.00;99.90
22145;DHT22;11238;48.730;11.566;2023-07-13T06:45:44;19.00;99.90
22145;DHT22;11238;48.730;11.566;2023-07-13T06:48:13;19.00;99.90
22145;DHT22;11238;48.730;11.566;2023-07-13T06:50:41;19.10;99.90
22145;DHT22;11238;48.730;11.566;2023-07-13T06:53:10;19.20;99.90
22145;DHT22;11238;48.730;11.566;2023-07-13T06:55:36;19.10;99.90
22145;DHT22;11238;48.730;11.566;2023-07-13T06:58:03;19.20;99.90
22145;DHT22;11238;48.730;11.566;2023-07-13T07:00:28;19.30;99.90
22145;DHT22;11238;48.730;11.566;2023-07-13T07:02:55;19.40;99.90
22145;DHT22;11238;48.730;11.566;2023-07-13T07:05:22;19.50;99.90
22145;DHT22;11238;48.730;11.566;2023-07-13T07:07:49;19.70;99.90
22145;DHT22;11238;48.730;11.566;2023-07-13T07:10:15;19.90;99.90
22145;DHT22;11238;48.730;11.566;2023-07-13T07:12:41;19.80;99.90
22145;DHT22;11238;48.730;11.566;2023-07-13T07:15:07;19.80;99.90
22145;DHT22;11238;48.730;11.566;2023-07-13T07:17:33;19.60;99.90
22145;DHT22;11238;48.730;11.566;2023-07-13T07:19:59;19.60;99.90
22145;DHT22;11238;48.730;11.566;2023-07-13T07:22:26;19.70;99.90
22145;DHT22;11238;48.730;11.566;2023-07-13T07:24:53;19.90;99.90
22145;DHT22;11238;48.730;11.566;2023-07-13T07:27:20;19.90;99.90
22145;DHT22;11238;48.730;11.566;2023-07-13T07:29:45;19.90;99.90
22145;DHT22;11238;48.730;11.566;2023-07-13T07:32:11;19.80;99.90
22145;DHT22;11238;48.730;11.566;2023-07-13T07:34:37;19.60;99.90
22145;DHT22;11238;48.730;11.566;2023-07-13T07:37:04;19.60;99.90
22145;DHT22;11238;48.730;11.566;2023-07-13T07:39:31;19.70;99.90
22145;DHT22;11238;48.730;11.566;2023-07-13T07:41:57;19.70;99.90
22145;DHT22;11238;48.730;11.566;2023-07-13T07:44:23;19.60;99.90
22145;DHT22;11238;48.730;11.566;2023-07-13T07:46:50;19.70;99.90
22145;DHT22;11238;48.730;11.566;2023-07-13T07:49:16;19.70;99.90
22145;DHT22;11238;48.730;11.566;2023-07-13T07:51:42;19.70;99.90
22145;DHT22;11238;48.730;11.566;2023-07-13T07:54:08;19.80;99.90
22145;DHT22;11238;48.730;11.566;2023-07-13T07:56:34;19.80;99.90
22145;DHT22;11238;48.730;11.566;2023-07-13T07:59:00;19.90;99.90
22145;DHT22;11238;48.730;11.566;2023-07-13T08:01:27;19.90;99.90
22145;DHT22;11238;48.730;11.566;2023-07-13T08:03:53;20.10;99.90
22145;DHT22;11238;48.730;11.566;2023-07-13T08:06:19;20.20;99.90
22145;DHT22;11238;48.730;11.566;2023-07-13T08:08:45;20.20;99.90
22145;DHT22;11238;48.730;11.566;2023-07-13T08:11:12;20.40;99.90
22145;DHT22;11238;48.730;11.566;2023-07-13T08:13:38;20.30;99.90
22145;DHT22;11238;48.730;11.566;2023-07-13T08:16:05;20.30;99.90
22145;DHT22;11238;48.730;11.566;2023-07-13T08:18:32;20.30;99.90
22145;DHT22;11238;48.730;11.566;2023-07-13T08:20:58;20.40;99.90
22145;DHT22;11238;48.730;11.566;2023-07-13T08:23:25;20.40;99.90
22145;DHT22;11238;48.730;11.566;2023-07-13T08:51:21;21.30;99.90
22145;DHT22;11238;48.730;11.566;2023-07-13T08:53:50;21.40;99.90
22145;DHT22;11238;48.730;11.566;2023-07-13T08:56:21;21.60;99.90
22145;DHT22;11238;48.730;11.566;2023-07-13T08:58:51;21.70;99.90
22145;DHT22;11238;48.730;11.566;2023-07-13T09:01:33;21.70;99.90
22145;DHT22;11238;48.730;11.566;2023-07-13T09:06:43;21.80;97.90
22145;DHT22;11238;48.730;11.566;2023-07-13T09:09:23;21.70;95.10
22145;DHT22;11238;48.730;11.566;2023-07-13T09:12:02;21.80;98.70
22145;DHT22;11238;48.730;11.566;2023-07-13T09:14:34;21.80;97.60
22145;DHT22;11238;48.730;11.566;2023-07-13T09:17:04;21.70;97.40
22145;DHT22;11238;48.730;11.566;2023-07-13T09:19:33;21.80;98.50
22145;DHT22;11238;48.730;11.566;2023-07-13T09:22:03;21.90;96.40
22145;DHT22;11238;48.730;11.566;2023-07-13T09:27:24;22.00;94.50
22145;DHT22;11238;48.730;11.566;2023-07-13T09:30:04;22.10;94.00
22145;DHT22;11238;48.730;11.566;2023-07-13T09:32:39;22.20;97.70
22145;DHT22;11238;48.730;11.566;2023-07-13T09:35:31;22.20;95.30
22145;DHT22;11238;48.730;11.566;2023-07-13T09:38:31;22.20;91.30
22145;DHT22;11238;48.730;11.566;2023-07-13T09:43:27;22.20;90.30
22145;DHT22;11238;48.730;11.566;2023-07-13T09:45:55;22.30;91.50
22145;DHT22;11238;48.730;11.566;2023-07-13T09:48:21;22.40;88.50
22145;DHT22;11238;48.730;11.566;2023-07-13T09:50:47;22.60;89.60
22145;DHT22;11238;48.730;11.566;2023-07-13T09:53:18;22.60;88.20
22145;DHT22;11238;48.730;11.566;2023-07-13T09:55:47;22.70;86.50
22145;DHT22;11238;48.730;11.566;2023-07-13T09:58:27;22.70;89.10
22145;DHT22;11238;48.730;11.566;2023-07-13T10:00:57;22.80;88.70
22145;DHT22;11238;48.730;11.566;2023-07-13T10:03:29;22.80;88.40
22145;DHT22;11238;48.730;11.566;2023-07-13T10:06:09;22.70;83.70
22145;DHT22;11238;48.730;11.566;2023-07-13T10:08:36;22.60;83.40
22145;DHT22;11238;48.730;11.566;2023-07-13T10:11:26;22.60;86.10
22145;DHT22;11238;48.730;11.566;2023-07-13T10:14:02;22.50;88.70
22145;DHT22;11238;48.730;11.566;2023-07-13T10:16:55;22.50;86.90
22145;DHT22;11238;48.730;11.566;2023-07-13T10:19:25;22.60;86.80
22145;DHT22;11238;48.730;11.566;2023-07-13T10:22:10;22.50;82.60
22145;DHT22;11238;48.730;11.566;2023-07-13T10:24:39;22.60;83.20
22145;DHT22;11238;48.730;11.566;2023-07-13T10:27:16;22.80;86.70
22145;DHT22;11238;48.730;11.566;2023-07-13T10:32:35;22.90;85.80
22145;DHT22;11238;48.730;11.566;2023-07-13T10:35:02;22.90;85.80
22145;DHT22;11238;48.730;11.566;2023-07-13T10:37:40;23.00;87.90
22145;DHT22;11238;48.730;11.566;2023-07-13T10:40:13;22.90;85.50
22145;DHT22;11238;48.730;11.566;2023-07-13T10:42:44;22.90;86.30
22145;DHT22;11238;48.730;11.566;2023-07-13T10:45:20;22.90;83.00
22145;DHT22;11238;48.730;11.566;2023-07-13T10:47:48;23.00;82.90
22145;DHT22;11238;48.730;11.566;2023-07-13T10:50:22;23.00;83.70
22145;DHT22;11238;48.730;11.566;2023-07-13T10:52:50;23.00;83.10
22145;DHT22;11238;48.730;11.566;2023-07-13T10:55:37;22.80;78.10
22145;DHT22;11238;48.730;11.566;2023-07-13T10:58:18;23.00;84.70
22145;DHT22;11238;48.730;11.566;2023-07-13T11:01:13;23.20;85.20
22145;DHT22;11238;48.730;11.566;2023-07-13T11:06:38;23.30;83.30
22145;DHT22;11238;48.730;11.566;2023-07-13T11:09:40;23.50;85.90
22145;DHT22;11238;48.730;11.566;2023-07-13T11:12:27;23.50;83.00
22145;DHT22;11238;48.730;11.566;2023-07-13T11:22:47;23.80;78.60
22145;DHT22;11238;48.730;11.566;2023-07-13T11:27:51;23.90;79.10
22145;DHT22;11238;48.730;11.566;2023-07-13T11:30:24;23.90;79.70
22145;DHT22;11238;48.730;11.566;2023-07-13T11:32:52;24.10;84.50
22145;DHT22;11238;48.730;11.566;2023-07-13T11:35:28;24.40;77.70
22145;DHT22;11238;48.730;11.566;2023-07-13T11:37:53;24.60;80.90
22145;DHT22;11238;48.730;11.566;2023-07-13T11:40:23;24.80;75.80
22145;DHT22;11238;48.730;11.566;2023-07-13T11:43:00;24.70;74.20
22145;DHT22;11238;48.730;11.566;2023-07-13T11:45:26;24.90;78.50
22145;DHT22;11238;48.730;11.566;2023-07-13T11:47:54;24.70;75.00
22145;DHT22;11238;48.730;11.566;2023-07-13T11:50:24;24.60;74.60
22145;DHT22;11238;48.730;11.566;2023-07-13T11:52:54;24.60;75.40
22145;DHT22;11238;48.730;11.566;2023-07-13T11:55:22;24.80;74.90
22145;DHT22;11238;48.730;11.566;2023-07-13T11:58:00;24.90;77.90
22145;DHT22;11238;48.730;11.566;2023-07-13T12:00:31;24.70;72.30
22145;DHT22;11238;48.730;11.566;2023-07-13T12:03:00;24.90;76.30
22145;DHT22;11238;48.730;11.566;2023-07-13T12:05:28;24.90;74.20
22145;DHT22;11238;48.730;11.566;2023-07-13T12:07:57;25.00;72.50
22145;DHT22;11238;48.730;11.566;2023-07-13T12:10:28;25.10;73.10
22145;DHT22;11238;48.730;11.566;2023-07-13T12:15:28;24.90;75.20
22145;DHT22;11238;48.730;11.566;2023-07-13T12:17:56;24.90;72.90
22145;DHT22;11238;48.730;11.566;2023-07-13T12:20:27;25.10;76.00
22145;DHT22;11238;48.730;11.566;2023-07-13T12:22:54;24.90;72.40
22145;DHT22;11238;48.730;11.566;2023-07-13T12:25:22;24.60;72.00
22145;DHT22;11238;48.730;11.566;2023-07-13T12:27:50;24.40;73.00
22145;DHT22;11238;48.730;11.566;2023-07-13T12:30:29;24.10;70.60
22145;DHT22;11238;48.730;11.566;2023-07-13T12:33:23;24.20;74.60
22145;DHT22;11238;48.730;11.566;2023-07-13T12:35:49;24.30;73.60
22145;DHT22;11238;48.730;11.566;2023-07-13T12:38:17;24.20;73.00
22145;DHT22;11238;48.730;11.566;2023-07-13T12:40:49;24.40;73.60
22145;DHT22;11238;48.730;11.566;2023-07-13T12:43:16;24.60;70.80
22145;DHT22;11238;48.730;11.566;2023-07-13T12:46:15;24.70;72.00
22145;DHT22;11238;48.730;11.566;2023-07-13T12:48:43;24.70;69.90
22145;DHT22;11238;48.730;11.566;2023-07-13T12:51:12;24.80;72.40
22145;DHT22;11238;48.730;11.566;2023-07-13T12:53:49;24.80;72.10
22145;DHT22;11238;48.730;11.566;2023-07-13T12:56:24;24.90;69.30
22145;DHT22;11238;48.730;11.566;2023-07-13T12:58:58;25.10;69.30
22145;DHT22;11238;48.730;11.566;2023-07-13T13:01:28;25.20;70.90
22145;DHT22;11238;48.730;11.566;2023-07-13T13:03:54;25.20;71.90
22145;DHT22;11238;48.730;11.566;2023-07-13T13:06:28;25.10;65.80
22145;DHT22;11238;48.730;11.566;2023-07-13T13:08:56;25.00;65.80
22145;DHT22;11238;48.730;11.566;2023-07-13T13:11:27;25.10;64.70
22145;DHT22;11238;48.730;11.566;2023-07-13T13:13:53;25.20;65.40
22145;DHT22;11238;48.730;11.566;2023-07-13T13:16:30;25.40;63.00
22145;DHT22;11238;48.730;11.566;2023-07-13T13:19:00;25.50;64.00
22145;DHT22;11238;48.730;11.566;2023-07-13T13:21:27;25.60;63.00
22145;DHT22;11238;48.730;11.566;2023-07-13T13:23:54;25.80;63.30
22145;DHT22;11238;48.730;11.566;2023-07-13T13:26:23;25.90;64.50
22145;DHT22;11238;48.730;11.566;2023-07-13T13:28:49;26.00;66.10
22145;DHT22;11238;48.730;11.566;2023-07-13T13:31:15;26.10;63.80
22145;DHT22;11238;48.730;11.566;2023-07-13T13:33:43;26.00;68.00
22145;DHT22;11238;48.730;11.566;2023-07-13T13:36:22;25.80;62.60
22145;DHT22;11238;48.730;11.566;2023-07-13T13:38:50;25.80;59.90
22145;DHT22;11238;48.730;11.566;2023-07-13T13:41:16;25.60;58.90
22145;DHT22;11238;48.730;11.566;2023-07-13T13:43:43;25.30;60.90
22145;DHT22;11238;48.730;11.566;2023-07-13T13:46:19;25.30;61.90
22145;DHT22;11238;48.730;11.566;2023-07-13T13:48:46;25.00;60.20
22145;DHT22;11238;48.730;11.566;2023-07-13T13:51:18;24.90;62.10
22145;DHT22;11238;48.730;11.566;2023-07-13T13:53:45;25.00;60.90
22145;DHT22;11238;48.730;11.566;2023-07-13T13:56:12;25.00;62.50
22145;DHT22;11238;48.730;11.566;2023-07-13T13:58:38;25.20;62.20
22145;DHT22;11238;48.730;11.566;2023-07-13T14:01:04;25.30;62.70
22145;DHT22;11238;48.730;11.566;2023-07-13T14:03:37;25.30;59.80
22145;DHT22;11238;48.730;11.566;2023-07-13T14:06:03;25.30;62.70
22145;DHT22;11238;48.730;11.566;2023-07-13T14:08:28;25.30;62.00
22145;DHT22;11238;48.730;11.566;2023-07-13T14:10:56;25.30;59.60
22145;DHT22;11238;48.730;11.566;2023-07-13T14:13:27;25.30;62.30
22145;DHT22;11238;48.730;11.566;2023-07-13T14:15:54;25.30;59.50
22145;DHT22;11238;48.730;11.566;2023-07-13T14:18:20;25.20;61.50
22145;DHT22;11238;48.730;11.566;2023-07-13T14:20:47;25.30;61.20
22145;DHT22;11238;48.730;11.566;2023-07-13T14:23:14;25.60;61.30
22145;DHT22;11238;48.730;11.566;2023-07-13T14:25:42;25.80;61.10
22145;DHT22;11238;48.730;11.566;2023-07-13T14:28:27;25.60;58.30
22145;DHT22;11238;48.730;11.566;2023-07-13T14:30:54;25.00;57.40
22145;DHT22;11238;48.730;11.566;2023-07-13T14:33:23;25.10;61.40
22145;DHT22;11238;48.730;11.566;2023-07-13T14:35:50;25.40;60.60
22145;DHT22;11238;48.730;11.566;2023-07-13T14:38:19;25.60;58.90
22145;DHT22;11238;48.730;11.566;2023-07-13T14:40:46;25.60;58.50
22145;DHT22;11238;48.730;11.566;2023-07-13T14:43:16;25.70;59.20
22145;DHT22;11238;48.730;11.566;2023-07-13T14:45:51;25.60;55.50
22145;DHT22;11238;48.730;11.566;2023-07-13T14:48:23;25.60;54.90
22145;DHT22;11238;48.730;11.566;2023-07-13T14:51:10;25.80;55.80
22145;DHT22;11238;48.730;11.566;2023-07-13T14:54:05;25.80;53.90
22145;DHT22;11238;48.730;11.566;2023-07-13T14:56:32;25.80;60.10
22145;DHT22;11238;48.730;11.566;2023-07-13T14:58:58;25.80;55.40
22145;DHT22;11238;48.730;11.566;2023-07-13T15:01:24;25.80;54.80
22145;DHT22;11238;48.730;11.566;2023-07-13T15:03:52;25.90;59.80
22145;DHT22;11238;48.730;11.566;2023-07-13T15:06:19;26.00;57.80
22145;DHT22;11238;48.730;11.566;2023-07-13T15:08:46;25.90;58.20
22145;DHT22;11238;48.730;11.566;2023-07-13T15:11:12;25.90;58.40
22145;DHT22;11238;48.730;11.566;2023-07-13T15:13:39;25.90;60.50
22145;DHT22;11238;48.730;11.566;2023-07-13T15:16:18;25.90;56.80
22145;DHT22;11238;48.730;11.566;2023-07-13T15:18:46;25.50;56.40
22145;DHT22;11238;48.730;11.566;2023-07-13T15:21:20;25.30;55.80
22145;DHT22;11238;48.730;11.566;2023-07-13T15:23:47;25.30;57.40
22145;DHT22;11238;48.730;11.566;2023-07-13T15:26:14;25.20;57.40
22145;DHT22;11238;48.730;11.566;2023-07-13T15:28:41;25.00;55.90
22145;DHT22;11238;48.730;11.566;2023-07-13T15:31:25;25.10;56.80
22145;DHT22;11238;48.730;11.566;2023-07-13T15:33:54;25.30;56.90
22145;DHT22;11238;48.730;11.566;2023-07-13T15:37:29;25.30;56.90
22145;DHT22;11238;48.730;11.566;2023-07-13T15:39:49;25.50;57.80
22145;DHT22;11238;48.730;11.566;2023-07-13T15:42:45;25.40;55.90
22145;DHT22;11238;48.730;11.566;2023-07-13T15:45:23;25.40;54.10
22145;DHT22;11238;48.730;11.566;2023-07-13T15:47:50;25.40;52.80
22145;DHT22;11238;48.730;11.566;2023-07-13T15:50:22;25.50;54.70
22145;DHT22;11238;48.730;11.566;2023-07-13T15:52:51;25.50;50.30
22145;DHT22;11238;48.730;11.566;2023-07-13T15:55:17;25.60;51.60
22145;DHT22;11238;48.730;11.566;2023-07-13T15:57:51;25.70;51.10
22145;DHT22;11238;48.730;11.566;2023-07-13T16:00:26;25.50;51.50
22145;DHT22;11238;48.730;11.566;2023-07-13T16:02:53;25.30;52.10
22145;DHT22;11238;48.730;11.566;2023-07-13T16:05:20;25.10;53.70
22145;DHT22;11238;48.730;11.566;2023-07-13T16:07:48;25.10;52.10
22145;DHT22;11238;48.730;11.566;2023-07-13T16:10:18;25.00;53.40
22145;DHT22;11238;48.730;11.566;2023-07-13T16:12:45;25.10;54.90
22145;DHT22;11238;48.730;11.566;2023-07-13T16:15:54;25.20;51.30
22145;DHT22;11238;48.730;11.566;2023-07-13T16:18:32;25.40;51.10
22145;DHT22;11238;48.730;11.566;2023-07-13T16:21:01;25.60;54.30
22145;DHT22;11238;48.730;11.566;2023-07-13T16:23:33;25.60;52.70
22145;DHT22;11238;48.730;11.566;2023-07-13T16:26:34;25.60;52.30